createdAt,value
2023-04-15T00:05:49.521Z,9.20
2023-04-15T00:12:32.171Z,9.07
2023-04-15T00:19:14.487Z,7.28
2023-04-15T00:25:57.217Z,16.20
2023-04-15T00:32:39.568Z,11.95
2023-04-15T00:39:22.912Z,9.50
2023-04-15T00:46:07.740Z,9.48
2023-04-15T00:52:50.113Z,10.38
2023-04-15T00:59:34.144Z,7.85
2023-04-15T01:06:17.278Z,14.93
2023-04-15T01:13:00.760Z,10.52
2023-04-15T01:19:43.274Z,9.32
2023-04-15T01:26:25.853Z,12.73
2023-04-15T01:33:08.485Z,12.00
2023-04-15T01:40:09.684Z,10.00
2023-04-15T01:46:54.396Z,11.63
2023-04-15T01:53:38.116Z,12.30
2023-04-15T02:00:22.981Z,12.60
2023-04-15T02:07:07.091Z,13.95
2023-04-15T02:13:52.645Z,12.02
2023-04-15T02:20:36.714Z,11.45
2023-04-15T02:27:20.517Z,9.95
2023-04-15T02:34:04.586Z,10.02
2023-04-15T02:40:49.711Z,11.85
2023-04-15T02:47:34.626Z,10.77
2023-04-15T02:54:22.971Z,13.73
2023-04-15T03:01:07.548Z,18.45
2023-04-15T03:07:51.922Z,15.45
2023-04-15T03:14:35.992Z,10.43
2023-04-15T03:21:19.981Z,8.95
2023-04-15T03:28:06.024Z,8.73
2023-04-15T03:34:50.278Z,11.27
2023-04-15T03:41:34.120Z,10.57
2023-04-15T03:48:18.367Z,10.38
2023-04-15T03:55:02.219Z,10.25
2023-04-15T04:01:45.868Z,12.73
2023-04-15T04:08:29.493Z,9.43
2023-04-15T04:15:13.160Z,7.72
2023-04-15T04:21:56.853Z,9.02
2023-04-15T04:28:40.578Z,10.52
2023-04-15T04:35:24.225Z,13.70
2023-04-15T04:42:07.904Z,14.50
2023-04-15T04:48:51.512Z,8.18
2023-04-15T04:55:36.937Z,16.27
2023-04-15T05:02:20.715Z,12.02
2023-04-15T05:09:04.372Z,12.95
2023-04-15T05:15:48.026Z,12.15
2023-04-15T05:22:31.864Z,10.30
2023-04-15T05:29:15.431Z,10.25
2023-04-15T05:35:59.010Z,12.90
2023-04-15T05:42:42.675Z,12.77
2023-04-15T05:49:26.279Z,9.77
2023-04-15T05:56:09.861Z,11.38
2023-04-15T06:02:53.722Z,6.50
2023-04-15T06:09:37.295Z,6.95
2023-04-15T06:16:21.158Z,6.35
2023-04-15T06:23:04.794Z,5.15
2023-04-15T06:29:48.449Z,5.00
2023-04-15T06:36:32.621Z,7.78
2023-04-15T06:43:16.205Z,7.57
2023-04-15T06:49:59.780Z,7.45
2023-04-15T06:56:43.372Z,8.45
2023-04-15T07:03:27.108Z,7.05
2023-04-15T07:10:11.948Z,5.47
2023-04-15T07:16:56.367Z,6.43
2023-04-15T07:23:40.220Z,9.07
2023-04-15T07:30:23.782Z,8.18
2023-04-15T07:37:07.346Z,5.78
2023-04-15T07:43:52.340Z,7.78
2023-04-15T07:50:36.281Z,7.43
2023-04-15T07:57:20.092Z,7.13
2023-04-15T08:04:04.047Z,7.57
2023-04-15T08:10:48.062Z,8.00
2023-04-15T08:17:32.445Z,6.72
2023-04-15T08:24:16.063Z,6.43
2023-04-15T08:30:59.669Z,6.38
2023-04-15T08:37:45.618Z,6.28
2023-04-15T08:44:34.865Z,8.02
2023-04-15T08:51:18.476Z,6.72
2023-04-15T08:58:02.962Z,6.05
2023-04-15T09:04:46.668Z,6.10
2023-04-15T09:11:31.369Z,4.82
2023-04-15T09:18:33.897Z,11.35
2023-04-15T09:25:23.330Z,6.15
2023-04-15T09:32:14.667Z,6.55
2023-04-15T09:39:00.097Z,5.53
2023-04-15T09:45:54.178Z,3.40
2023-04-15T09:52:45.597Z,3.83
2023-04-15T09:59:29.217Z,4.68
2023-04-15T10:06:13.423Z,5.53
2023-04-15T10:12:57.072Z,4.15
2023-04-15T10:19:41.393Z,4.30
2023-04-15T10:26:25.247Z,6.15
2023-04-15T10:33:09.927Z,5.15
2023-04-15T10:39:53.542Z,4.90
2023-04-15T10:46:42.260Z,5.53
2023-04-15T10:53:29.956Z,5.18
2023-04-15T11:00:15.699Z,8.60
2023-04-15T11:07:07.917Z,5.05
2023-04-15T11:13:52.485Z,3.22
2023-04-15T11:20:37.693Z,6.50
2023-04-15T11:27:23.318Z,5.55
2023-04-15T11:34:07.061Z,9.18
2023-04-15T11:40:52.130Z,8.57
2023-04-15T11:47:36.982Z,6.70
2023-04-15T11:54:20.907Z,7.53
2023-04-15T12:01:03.728Z,6.45
2023-04-15T12:07:59.922Z,4.80
2023-04-15T12:14:42.285Z,3.33
2023-04-15T12:21:26.881Z,5.40
2023-04-15T12:28:12.813Z,6.15
2023-04-15T12:34:55.270Z,8.18
2023-04-15T12:41:37.988Z,11.20
2023-04-15T12:48:20.737Z,5.57
2023-04-15T12:55:03.056Z,5.10
2023-04-15T13:01:47.388Z,4.97
2023-04-15T13:08:29.818Z,4.18
2023-04-15T13:15:12.967Z,4.43
2023-04-15T13:21:55.430Z,3.75
2023-04-15T13:28:38.141Z,3.50
2023-04-15T13:35:21.390Z,3.97
2023-04-15T13:42:03.854Z,4.35
2023-04-15T13:48:46.209Z,2.13
2023-04-15T13:55:28.873Z,2.08
2023-04-15T14:02:11.496Z,2.90
2023-04-15T14:08:54.677Z,2.88
2023-04-15T14:15:37.045Z,2.38
2023-04-15T14:22:19.383Z,2.60
2023-04-15T14:29:01.987Z,1.92
2023-04-15T14:35:44.581Z,2.65
2023-04-15T14:42:26.910Z,2.30
2023-04-15T14:49:09.251Z,2.45
2023-04-15T14:55:51.719Z,2.05
2023-04-15T15:09:22.082Z,3.33
2023-04-15T15:16:04.693Z,3.95
2023-04-15T15:22:47.124Z,2.05
2023-04-15T15:29:29.484Z,3.78
2023-04-15T15:36:12.073Z,3.25
2023-04-15T15:42:54.443Z,3.20
2023-04-15T15:49:36.743Z,2.05
2023-04-15T15:56:19.056Z,3.20
2023-04-15T16:03:07.393Z,2.35
2023-04-15T16:09:50.712Z,4.30
2023-04-15T16:16:33.088Z,2.88
2023-04-15T16:23:16.730Z,4.05
2023-04-15T16:29:59.047Z,4.50
2023-04-15T16:36:41.751Z,2.70
2023-04-15T16:43:24.738Z,4.05
2023-04-15T16:50:07.955Z,3.78
2023-04-15T16:56:50.341Z,4.50
2023-04-15T17:03:32.866Z,4.82
2023-04-15T17:10:15.292Z,3.85
2023-04-15T17:16:57.639Z,4.63
2023-04-15T17:23:40.067Z,4.38
2023-04-15T17:30:23.194Z,4.90
2023-04-15T17:37:25.524Z,4.35
2023-04-15T17:44:27.732Z,3.13
2023-04-15T17:51:29.913Z,3.55
2023-04-15T17:58:42.039Z,2.25
2023-04-15T18:05:44.313Z,3.17
2023-04-15T18:12:47.309Z,3.42
2023-04-15T18:19:49.542Z,4.68
2023-04-15T18:26:32.079Z,3.30
2023-04-15T18:33:14.354Z,3.00
2023-04-15T18:39:57.508Z,3.80
2023-04-15T18:46:40.034Z,3.58
2023-04-15T18:53:22.523Z,3.92
2023-04-15T19:00:05.217Z,2.72
2023-04-15T19:06:47.979Z,5.63
2023-04-15T19:13:30.294Z,3.20
2023-04-15T19:20:12.623Z,4.88
2023-04-15T19:26:55.056Z,4.35
2023-04-15T19:33:37.457Z,5.80
2023-04-15T19:40:19.785Z,6.07
2023-04-15T19:47:02.219Z,6.05
2023-04-15T19:53:44.587Z,6.90
2023-04-15T20:00:27.464Z,6.75
2023-04-15T20:07:10.149Z,7.22
2023-04-15T20:13:52.431Z,7.45
2023-04-15T20:20:35.336Z,7.97
2023-04-15T20:27:17.651Z,7.38
2023-04-15T20:34:00.037Z,8.48
2023-04-15T20:40:42.573Z,7.85
2023-04-15T20:47:24.910Z,8.07
2023-04-15T20:54:07.296Z,8.88
2023-04-15T21:00:49.898Z,9.60
2023-04-15T21:07:32.428Z,8.35
2023-04-15T21:14:15.408Z,9.27
2023-04-15T21:21:02.237Z,8.48
2023-04-15T21:27:44.563Z,10.13
2023-04-15T21:34:26.901Z,8.98
2023-04-15T21:41:10.175Z,9.52
2023-04-15T21:47:57.328Z,10.65
2023-04-15T21:54:49.358Z,11.18
2023-04-15T22:01:31.734Z,10.80
2023-04-15T22:08:14.097Z,11.65
2023-04-15T22:14:56.408Z,13.50
2023-04-15T22:21:38.724Z,12.82
2023-04-15T22:28:21.028Z,13.35
2023-04-15T22:35:06.303Z,13.88
2023-04-15T22:41:49.504Z,13.63
2023-04-15T22:48:31.875Z,14.38
2023-04-15T22:55:14.430Z,15.80
2023-04-15T23:01:59.099Z,14.43
2023-04-15T23:08:41.499Z,13.48
2023-04-15T23:15:24.025Z,13.85
2023-04-15T23:22:07.031Z,12.73
2023-04-15T23:28:49.379Z,12.90
2023-04-15T23:35:31.800Z,13.70
2023-04-15T23:42:14.107Z,13.23
2023-04-15T23:48:56.418Z,14.00
2023-04-15T23:55:38.663Z,15.23
